createdAt,value
2023-01-07T00:01:40.817Z,101497.09
2023-01-07T00:04:12.266Z,101497.09
2023-01-07T00:06:41.797Z,101502.31
2023-01-07T00:09:16.834Z,101497.00
2023-01-07T00:11:45.048Z,101496.97
2023-01-07T00:14:14.306Z,101486.41
2023-01-07T00:16:41.822Z,101488.13
2023-01-07T00:19:14.363Z,101488.97
2023-01-07T00:21:42.437Z,101487.19
2023-01-07T00:24:18.584Z,101482.81
2023-01-07T00:26:45.811Z,101483.72
2023-01-07T00:29:12.941Z,101482.81
2023-01-07T00:31:41.088Z,101482.81
2023-01-07T00:34:09.562Z,101476.72
2023-01-07T00:36:46.364Z,101474.09
2023-01-07T00:39:17.183Z,101476.72
2023-01-07T00:42:05.489Z,101478.50
2023-01-07T00:44:33.550Z,101474.09
2023-01-07T00:47:01.422Z,101474.09
2023-01-07T00:49:28.506Z,101477.63
2023-01-07T00:51:55.621Z,101463.56
2023-01-07T00:54:22.825Z,101460.88
2023-01-07T00:56:49.832Z,101455.59
2023-01-07T00:59:16.950Z,101458.19
2023-01-07T01:01:44.082Z,101445.88
2023-01-07T01:04:11.304Z,101443.22
2023-01-07T01:06:43.756Z,101437.06
2023-01-07T01:09:10.900Z,101442.31
2023-01-07T01:11:37.877Z,101441.44
2023-01-07T01:14:04.874Z,101433.50
2023-01-07T01:16:31.944Z,101425.59
2023-01-07T01:18:58.936Z,101428.22
2023-01-07T01:21:25.940Z,101426.47
2023-01-07T01:23:53.031Z,101435.28
2023-01-07T01:26:20.099Z,101424.78
2023-01-07T01:28:47.109Z,101421.28
2023-01-07T01:31:14.382Z,101420.41
2023-01-07T01:33:41.743Z,101427.41
2023-01-07T01:36:12.967Z,101416.03
2023-01-07T01:38:41.017Z,101413.41
2023-01-07T01:41:08.522Z,101408.16
2023-01-07T01:43:39.585Z,101413.41
2023-01-07T01:46:21.008Z,101410.78
2023-01-07T01:49:17.162Z,101404.66
2023-01-07T01:51:55.408Z,101406.41
2023-01-07T01:54:23.703Z,101411.72
2023-01-07T01:56:54.381Z,101418.75
2023-01-07T01:59:26.947Z,101409.09
2023-01-07T02:01:54.346Z,101403.00
2023-01-07T02:04:24.598Z,101403.91
2023-01-07T02:07:01.237Z,101403.03
2023-01-07T02:09:28.913Z,101401.31
2023-01-07T02:12:16.844Z,101406.56
2023-01-07T02:15:18.460Z,101403.94
2023-01-07T02:18:18.421Z,101403.06
2023-01-07T02:21:21.852Z,101402.22
2023-01-07T02:24:29.123Z,101404.91
2023-01-07T02:27:16.360Z,101400.50
2023-01-07T02:30:43.256Z,101397.91
2023-01-07T02:33:58.217Z,101397.88
2023-01-07T02:36:47.459Z,101396.94
2023-01-07T02:39:35.401Z,101392.56
2023-01-07T02:42:25.898Z,101399.56
2023-01-07T02:45:14.981Z,101384.63
2023-01-07T02:47:52.423Z,101390.78
2023-01-07T02:50:19.669Z,101385.53
2023-01-07T02:52:46.860Z,101386.41
2023-01-07T02:55:19.430Z,101382.97
2023-01-07T02:58:00.750Z,101383.88
2023-01-07T03:01:06.143Z,101381.28
2023-01-07T03:04:09.835Z,101385.69
2023-01-07T03:07:06.987Z,101376.94
2023-01-07T03:10:05.608Z,101377.84
2023-01-07T03:13:02.824Z,101369.09
2023-01-07T03:16:11.120Z,101371.72
2023-01-07T03:18:51.164Z,101362.06
2023-01-07T03:21:19.995Z,101361.19
2023-01-07T03:23:55.299Z,101355.91
2023-01-07T03:26:30.037Z,101363.81
2023-01-07T03:29:02.814Z,101348.84
2023-01-07T03:31:31.012Z,101341.84
2023-01-07T03:34:09.863Z,101346.22
2023-01-07T03:36:49.256Z,101341.84
2023-01-07T03:39:17.733Z,101334.81
2023-01-07T03:42:03.333Z,101337.44
2023-01-07T03:44:30.325Z,101341.84
2023-01-07T03:46:57.410Z,101343.59
2023-01-07T03:49:24.446Z,101339.22
2023-01-07T03:51:54.340Z,101345.34
2023-01-07T03:54:23.856Z,101344.47
2023-01-07T03:56:50.863Z,101341.00
2023-01-07T03:59:17.889Z,101332.25
2023-01-07T04:01:45.004Z,101331.38
2023-01-07T04:04:12.211Z,101327.84
2023-01-07T04:06:39.242Z,101323.44
2023-01-07T04:09:06.213Z,101320.78
2023-01-07T04:11:33.220Z,101312.91
2023-01-07T04:14:00.888Z,101304.13
2023-01-07T04:16:28.052Z,101307.63
2023-01-07T04:18:55.420Z,101300.56
2023-01-07T04:21:22.553Z,101299.69
2023-01-07T04:23:49.745Z,101301.47
2023-01-07T04:26:16.813Z,101300.56
2023-01-07T04:28:43.812Z,101298.84
2023-01-07T04:31:10.981Z,101290.06
2023-01-07T04:33:38.403Z,101286.56
2023-01-07T04:36:05.720Z,101289.22
2023-01-07T04:38:33.046Z,101275.22
2023-01-07T04:41:00.132Z,101269.09
2023-01-07T04:43:27.152Z,101269.97
2023-01-07T04:45:54.216Z,101272.59
2023-01-07T04:48:21.335Z,101268.22
2023-01-07T04:50:48.585Z,101259.44
2023-01-07T04:53:16.514Z,101262.06
2023-01-07T04:55:44.966Z,101251.50
2023-01-07T04:58:13.442Z,101261.19
2023-01-07T05:00:40.545Z,101254.19
2023-01-07T05:03:07.579Z,101253.31
2023-01-07T05:05:34.771Z,101247.19
2023-01-07T05:08:05.133Z,101242.84
2023-01-07T05:10:33.035Z,101241.97
2023-01-07T05:13:00.054Z,101236.69
2023-01-07T05:15:27.147Z,101227.91
2023-01-07T05:17:54.155Z,101234.94
2023-01-07T05:20:21.140Z,101231.41
2023-01-07T05:22:50.207Z,101236.69
2023-01-07T05:25:17.424Z,101233.13
2023-01-07T05:27:44.388Z,101231.38
2023-01-07T05:30:11.858Z,101232.25
2023-01-07T05:32:38.901Z,101225.28
2023-01-07T05:35:06.329Z,101228.75
2023-01-07T05:37:33.900Z,101223.53
2023-01-07T05:40:00.939Z,101217.38
2023-01-07T05:42:28.043Z,101225.28
2023-01-07T05:44:55.148Z,101227.03
2023-01-07T05:47:22.255Z,101224.41
2023-01-07T05:49:49.512Z,101216.50
2023-01-07T05:52:17.640Z,101218.25
2023-01-07T05:54:44.667Z,101213.88
2023-01-07T05:57:11.705Z,101214.75
2023-01-07T05:59:38.874Z,101211.25
2023-01-07T06:02:05.955Z,101209.50
2023-01-07T06:04:34.209Z,101207.75
2023-01-07T06:07:01.834Z,101205.09
2023-01-07T06:09:30.000Z,101201.59
2023-01-07T06:11:57.285Z,101193.69
2023-01-07T06:14:24.288Z,101191.94
2023-01-07T06:16:51.407Z,101190.16
2023-01-07T06:19:18.527Z,101187.53
2023-01-07T06:21:45.518Z,101183.13
2023-01-07T06:24:12.566Z,101176.13
2023-01-07T06:26:39.571Z,101174.38
2023-01-07T06:29:07.160Z,101172.63
2023-01-07T06:31:34.284Z,101165.59
2023-01-07T06:34:01.270Z,101169.97
2023-01-07T06:36:28.378Z,101162.09
2023-01-07T06:38:55.412Z,101150.69
2023-01-07T06:41:22.579Z,101159.44
2023-01-07T06:43:49.595Z,101151.56
2023-01-07T06:46:16.972Z,101142.78
2023-01-07T06:48:44.143Z,101139.28
2023-01-07T06:51:11.360Z,101141.91
2023-01-07T06:53:38.364Z,101139.28
2023-01-07T06:56:05.789Z,101134.88
2023-01-07T06:58:32.823Z,101130.50
2023-01-07T07:03:50.951Z,101119.06
2023-01-07T07:06:18.012Z,101127.84
2023-01-07T07:08:44.990Z,101131.34
2023-01-07T07:11:15.059Z,101133.09
2023-01-07T07:13:42.103Z,101126.94
2023-01-07T07:16:09.188Z,101131.34
2023-01-07T07:18:36.299Z,101128.72
2023-01-07T07:21:03.440Z,101117.31
2023-01-07T07:23:30.513Z,101114.66
2023-01-07T07:25:57.551Z,101117.31
2023-01-07T07:28:24.593Z,101116.44
2023-01-07T07:30:51.681Z,101112.91
2023-01-07T07:33:21.874Z,101111.16
2023-01-07T07:35:49.496Z,101109.41
2023-01-07T07:38:18.097Z,101101.53
2023-01-07T07:40:48.932Z,101109.41
2023-01-07T07:43:16.644Z,101100.63
2023-01-07T07:45:44.690Z,101101.53
2023-01-07T07:48:16.540Z,101102.41
2023-01-07T07:50:43.651Z,101094.50
2023-01-07T07:53:11.560Z,101094.50
2023-01-07T07:55:39.720Z,101091.88
2023-01-07T07:58:07.454Z,101088.38
2023-01-07T08:00:34.531Z,101091.91
2023-01-07T08:03:02.102Z,101090.16
2023-01-07T08:05:29.942Z,101085.78
2023-01-07T08:07:58.218Z,101080.53
2023-01-07T08:10:27.207Z,101071.78
2023-01-07T08:12:54.258Z,101069.13
2023-01-07T08:15:21.367Z,101062.16
2023-01-07T08:17:48.471Z,101063.91
2023-01-07T08:20:15.503Z,101065.69
2023-01-07T08:22:42.532Z,101064.81
2023-01-07T08:25:10.023Z,101067.44
2023-01-07T08:27:37.035Z,101060.41
2023-01-07T08:30:04.619Z,101065.72
2023-01-07T08:32:31.618Z,101053.41
2023-01-07T08:34:58.752Z,101054.28
2023-01-07T08:37:26.066Z,101059.59
2023-01-07T08:39:53.063Z,101053.44
2023-01-07T08:42:20.152Z,101046.41
2023-01-07T08:44:47.187Z,101048.16
2023-01-07T08:47:14.683Z,101039.38
2023-01-07T08:49:41.759Z,101037.66
2023-01-07T08:52:08.761Z,101040.28
2023-01-07T08:54:35.798Z,101037.66
2023-01-07T08:57:04.107Z,101031.50
2023-01-07T08:59:31.585Z,101034.13
2023-01-07T09:01:58.831Z,101044.72
2023-01-07T09:04:25.996Z,101032.44
2023-01-07T09:06:53.056Z,101035.09
2023-01-07T09:09:20.225Z,101024.53
2023-01-07T09:11:47.322Z,101012.22
2023-01-07T09:14:14.882Z,101021.91
2023-01-07T09:16:42.089Z,101022.78
2023-01-07T09:19:09.171Z,101016.63
2023-01-07T09:21:36.312Z,101012.25
2023-01-07T09:24:03.392Z,101002.56
2023-01-07T09:26:30.363Z,101006.97
2023-01-07T09:28:57.364Z,101006.06
2023-01-07T09:31:24.466Z,101002.53
2023-01-07T09:33:51.665Z,101002.53
2023-01-07T09:36:18.720Z,101004.31
2023-01-07T09:38:45.743Z,100995.50
2023-01-07T09:42:04.681Z,100998.13
2023-01-07T09:44:44.674Z,100998.06
2023-01-07T09:47:15.504Z,100988.34
2023-01-07T09:49:44.823Z,100990.97
2023-01-07T09:52:25.971Z,100985.66
2023-01-07T09:55:03.877Z,100985.63
2023-01-07T09:57:30.927Z,100975.94
2023-01-07T09:59:58.044Z,100976.81
2023-01-07T10:02:46.100Z,100979.47
2023-01-07T10:05:31.410Z,100979.44
2023-01-07T10:08:31.985Z,100961.88
2023-01-07T10:11:54.810Z,100958.38
2023-01-07T10:14:50.737Z,100946.03
2023-01-07T10:17:45.960Z,100942.50
2023-01-07T10:20:21.632Z,100931.09
2023-01-07T10:22:57.914Z,100931.06
2023-01-07T10:25:35.992Z,100926.69
2023-01-07T10:28:18.256Z,100913.50
2023-01-07T10:30:48.332Z,100913.50
2023-01-07T10:33:31.516Z,100906.44
2023-01-07T10:36:04.776Z,100902.88
2023-01-07T10:38:37.453Z,100894.06
2023-01-07T10:41:16.830Z,100894.03
2023-01-07T10:44:25.086Z,100882.59
2023-01-07T10:47:27.464Z,100870.28
2023-01-07T10:49:54.460Z,100868.50
2023-01-07T10:52:45.333Z,100864.97
2023-01-07T10:55:22.386Z,100866.75
2023-01-07T10:57:49.636Z,100851.78
2023-01-07T11:00:18.584Z,100851.75
2023-01-07T11:02:54.670Z,100839.44
2023-01-07T11:05:23.003Z,100839.44
2023-01-07T11:08:26.925Z,100835.00
2023-01-07T11:10:54.029Z,100839.41
2023-01-07T11:13:30.543Z,100835.00
2023-01-07T11:16:12.661Z,100833.09
2023-01-07T11:19:04.273Z,100828.66
2023-01-07T11:21:47.534Z,100828.66
2023-01-07T11:24:32.598Z,100829.53
2023-01-07T11:27:12.664Z,100822.47
2023-01-07T11:30:04.196Z,100808.31
2023-01-07T11:32:40.316Z,100799.53
2023-01-07T11:35:22.675Z,100788.09
2023-01-07T11:37:50.698Z,100783.66
2023-01-07T11:40:23.743Z,100781.91
2023-01-07T11:42:58.569Z,100774.00
2023-01-07T11:46:20.276Z,100767.81
2023-01-07T11:48:57.953Z,100767.88
2023-01-07T11:51:25.361Z,100764.41
2023-01-07T11:54:00.449Z,100752.97
2023-01-07T11:56:34.708Z,100745.94
2023-01-07T11:59:14.352Z,100745.06
2023-01-07T12:01:49.911Z,100744.19
2023-01-07T12:04:36.167Z,100754.66
2023-01-07T12:07:14.455Z,100743.19
2023-01-07T12:09:44.096Z,100736.13
2023-01-07T12:12:39.453Z,100725.38
2023-01-07T12:15:47.461Z,100716.44
2023-01-07T12:18:41.817Z,100710.28
2023-01-07T12:21:50.826Z,100709.34
2023-01-07T12:25:17.969Z,100707.47
2023-01-07T12:28:16.916Z,100696.75
2023-01-07T12:31:27.577Z,100700.22
2023-01-07T12:34:45.847Z,100700.22
2023-01-07T12:37:36.589Z,100695.78
2023-01-07T12:40:13.351Z,100694.84
2023-01-07T12:42:54.010Z,100673.78
2023-01-07T12:45:41.590Z,100674.78
2023-01-07T12:48:35.706Z,100668.81
2023-01-07T12:51:18.401Z,100664.53
2023-01-07T12:54:27.656Z,100654.97
2023-01-07T12:57:03.515Z,100655.97
2023-01-07T12:59:48.112Z,100644.56
2023-01-07T13:02:33.244Z,100648.09
2023-01-07T13:05:16.393Z,100631.44
2023-01-07T13:07:43.866Z,100639.38
2023-01-07T13:10:18.979Z,100620.06
2023-01-07T13:12:49.279Z,100624.44
2023-01-07T13:15:36.081Z,100619.06
2023-01-07T13:18:29.608Z,100611.94
2023-01-07T13:21:11.751Z,100606.56
2023-01-07T13:24:00.731Z,100600.28
2023-01-07T13:26:52.020Z,100589.72
2023-01-07T13:30:08.779Z,100595.94
2023-01-07T13:33:29.351Z,100579.22
2023-01-07T13:36:32.520Z,100586.28
2023-01-07T13:39:58.740Z,100580.22
2023-01-07T13:42:29.274Z,100576.75
2023-01-07T13:45:05.864Z,100561.84
2023-01-07T13:47:53.054Z,100554.00
2023-01-07T13:50:43.285Z,100553.16
2023-01-07T13:53:46.183Z,100552.38
2023-01-07T13:56:19.557Z,100540.09
2023-01-07T13:58:58.183Z,100532.22
2023-01-07T14:01:33.899Z,100533.13
2023-01-07T14:04:03.984Z,100526.13
2023-01-07T14:06:52.626Z,100525.25
2023-01-07T14:09:31.931Z,100503.25
2023-01-07T14:12:19.619Z,100514.72
2023-01-07T14:15:16.731Z,100513.88
2023-01-07T14:17:57.709Z,100522.66
2023-01-07T14:20:49.844Z,100516.50
2023-01-07T14:23:33.407Z,100508.66
2023-01-07T14:26:35.957Z,100506.91
2023-01-07T14:29:08.553Z,100508.69
2023-01-07T14:31:36.618Z,100489.38
2023-01-07T14:34:27.024Z,100481.47
2023-01-07T14:37:06.427Z,100494.72
2023-01-07T14:39:40.866Z,100493.03
2023-01-07T14:42:20.048Z,100488.69
2023-01-07T14:44:50.845Z,100487.88
2023-01-07T14:47:45.341Z,100487.03
2023-01-07T14:51:11.688Z,100493.25
2023-01-07T14:54:22.358Z,100492.47
2023-01-07T14:57:45.412Z,100485.47
2023-01-07T15:00:58.954Z,100486.44
2023-01-07T15:03:58.392Z,100475.09
2023-01-07T15:06:35.726Z,100476.03
2023-01-07T15:09:29.587Z,100474.31
2023-01-07T15:12:33.899Z,100464.72
2023-01-07T15:15:37.813Z,100459.56
2023-01-07T15:18:09.114Z,100443.81
2023-01-07T15:21:04.328Z,100450.91
2023-01-07T15:24:04.890Z,100443.91
2023-01-07T15:26:54.894Z,100441.31
2023-01-07T15:29:50.587Z,100449.22
2023-01-07T15:32:39.720Z,100441.31
2023-01-07T15:35:23.315Z,100431.69
2023-01-07T15:37:51.596Z,100429.97
2023-01-07T15:40:23.643Z,100423.84
2023-01-07T15:42:56.802Z,100423.88
2023-01-07T15:45:27.077Z,100415.97
2023-01-07T15:48:12.875Z,100408.13
2023-01-07T15:50:46.058Z,100412.56
2023-01-07T15:53:12.980Z,100400.25
2023-01-07T15:56:03.891Z,100402.00
2023-01-07T15:58:48.546Z,100414.31
2023-01-07T16:01:22.652Z,100413.44
2023-01-07T16:03:55.798Z,100398.53
2023-01-07T16:06:27.564Z,100395.00
2023-01-07T16:08:54.900Z,100394.13
2023-01-07T16:11:31.477Z,100388.91
2023-01-07T16:14:03.912Z,100382.72
2023-01-07T16:16:32.868Z,100386.25
2023-01-07T16:19:02.892Z,100382.78
2023-01-07T16:21:37.760Z,100382.78
2023-01-07T16:24:05.988Z,100377.53
2023-01-07T16:27:05.397Z,100383.69
2023-01-07T16:29:48.360Z,100371.41
2023-01-07T16:32:16.838Z,100376.66
2023-01-07T16:35:17.426Z,100388.97
2023-01-07T16:37:45.637Z,100377.56
2023-01-07T16:40:27.475Z,100374.91
2023-01-07T16:42:55.064Z,100376.75
2023-01-07T16:45:32.724Z,100384.66
2023-01-07T16:48:21.700Z,100370.69
2023-01-07T16:50:50.121Z,100376.88
2023-01-07T16:53:33.704Z,100373.38
2023-01-07T16:56:17.674Z,100376.88
2023-01-07T16:58:53.142Z,100373.38
2023-01-07T17:01:34.041Z,100380.44
2023-01-07T17:04:07.640Z,100382.22
2023-01-07T17:06:42.500Z,100385.75
2023-01-07T17:09:38.667Z,100390.19
2023-01-07T17:12:06.360Z,100392.81
2023-01-07T17:14:33.315Z,100386.75
2023-01-07T17:17:25.790Z,100377.16
2023-01-07T17:20:12.475Z,100381.56
2023-01-07T17:22:40.308Z,100377.25
2023-01-07T17:25:14.181Z,100374.63
2023-01-07T17:27:58.256Z,100369.41
2023-01-07T17:30:36.407Z,100366.78
2023-01-07T17:33:04.157Z,100356.34
2023-01-07T17:35:31.399Z,100358.06
2023-01-07T17:37:58.416Z,100350.22
2023-01-07T17:40:25.555Z,100347.59
2023-01-07T17:43:24.910Z,100351.97
2023-01-07T17:45:51.952Z,100337.97
2023-01-07T17:48:18.997Z,100333.59
2023-01-07T17:50:46.075Z,100328.31
2023-01-07T17:53:28.477Z,100326.59
2023-01-07T17:55:55.905Z,100311.72
2023-01-07T17:58:29.621Z,100317.84
2023-01-07T18:00:59.408Z,100298.59
2023-01-07T18:03:27.285Z,100298.63
2023-01-07T18:05:54.365Z,100306.50
2023-01-07T18:08:21.379Z,100313.53
2023-01-07T18:11:09.661Z,100326.66
2023-01-07T18:13:36.832Z,100315.28
2023-01-07T18:16:04.431Z,100307.41
2023-01-07T18:18:31.582Z,100314.41
2023-01-07T18:20:59.706Z,100319.66
2023-01-07T18:23:26.680Z,100313.53
2023-01-07T18:25:54.946Z,100313.53
2023-01-07T18:28:22.042Z,100322.25
2023-01-07T18:30:49.081Z,100313.50
2023-01-07T18:33:16.272Z,100308.22
2023-01-07T18:35:43.372Z,100303.84
2023-01-07T18:38:14.781Z,100302.97
2023-01-07T18:40:42.934Z,100317.88
2023-01-07T18:43:16.656Z,100325.72
2023-01-07T18:45:45.731Z,100322.22
2023-01-07T18:48:15.622Z,100325.69
2023-01-07T18:50:44.777Z,100326.59
2023-01-07T18:53:12.551Z,100308.16
2023-01-07T18:55:42.593Z,100315.13
2023-01-07T18:58:13.991Z,100316.00
2023-01-07T19:00:42.215Z,100323.00
2023-01-07T19:03:11.077Z,100319.47
2023-01-07T19:05:41.136Z,100311.56
2023-01-07T19:08:08.181Z,100319.44
2023-01-07T19:10:36.436Z,100306.28
2023-01-07T19:13:03.555Z,100304.53
2023-01-07T19:15:30.569Z,100298.34
2023-01-07T19:17:57.529Z,100297.47
2023-01-07T19:20:24.558Z,100294.84
2023-01-07T19:22:51.552Z,100297.47
2023-01-07T19:25:18.596Z,100293.94
2023-01-07T19:27:45.643Z,100305.31
2023-01-07T19:30:12.999Z,100303.53
2023-01-07T19:32:40.055Z,100313.22
2023-01-07T19:35:08.272Z,100300.91
2023-01-07T19:37:38.107Z,100308.75
2023-01-07T19:40:07.072Z,100307.84
2023-01-07T19:42:34.509Z,100308.75
2023-01-07T19:45:02.472Z,100306.97
2023-01-07T19:47:29.712Z,100304.31
2023-01-07T19:49:56.822Z,100304.31
2023-01-07T19:52:23.959Z,100299.06
2023-01-07T19:54:50.957Z,100286.75
2023-01-07T19:57:18.021Z,100298.16
2023-01-07T19:59:45.090Z,100300.81
2023-01-07T20:02:14.486Z,100293.81
2023-01-07T20:04:43.068Z,100297.34
2023-01-07T20:07:10.228Z,100302.56
2023-01-07T20:09:37.248Z,100292.09
2023-01-07T20:12:04.630Z,100292.09
2023-01-07T20:14:33.195Z,100300.84
2023-01-07T20:17:00.230Z,100289.47
2023-01-07T20:19:27.379Z,100281.56
2023-01-07T20:21:54.443Z,100278.06
2023-01-07T20:24:21.717Z,100275.41
2023-01-07T20:26:48.884Z,100285.06
2023-01-07T20:29:16.008Z,100272.81
2023-01-07T20:31:44.355Z,100276.28
2023-01-07T20:34:11.430Z,100268.41
2023-01-07T20:36:38.525Z,100266.69
2023-01-07T20:39:06.150Z,100287.72
2023-01-07T20:41:35.149Z,100271.03
2023-01-07T20:44:06.342Z,100264.91
2023-01-07T20:46:34.849Z,100268.41
2023-01-07T20:49:02.451Z,100264.03
2023-01-07T20:51:29.495Z,100264.03
2023-01-07T20:53:57.757Z,100257.84
2023-01-07T20:56:26.289Z,100259.59
2023-01-07T20:58:53.362Z,100262.19
2023-01-07T21:01:21.929Z,100262.19
2023-01-07T21:03:49.409Z,100267.47
2023-01-07T21:06:19.729Z,100268.34
2023-01-07T21:08:48.549Z,100261.34
2023-01-07T21:11:21.848Z,100256.06
2023-01-07T21:13:50.165Z,100253.44
2023-01-07T21:16:17.847Z,100248.16
2023-01-07T21:18:45.168Z,100253.44
2023-01-07T21:21:20.409Z,100259.53
2023-01-07T21:23:48.753Z,100253.41
2023-01-07T21:26:16.540Z,100242.03
2023-01-07T21:28:44.749Z,100242.91
2023-01-07T21:31:16.023Z,100248.16
2023-01-07T21:33:44.776Z,100247.25
2023-01-07T21:36:17.965Z,100239.34
2023-01-07T21:38:46.632Z,100245.53
2023-01-07T21:41:16.180Z,100239.38
2023-01-07T21:43:44.683Z,100240.28
2023-01-07T21:46:13.154Z,100232.38
2023-01-07T21:48:45.090Z,100236.75
2023-01-07T21:51:20.783Z,100224.50
2023-01-07T21:53:48.478Z,100226.25
2023-01-07T21:56:17.980Z,100224.47
2023-01-07T21:58:48.543Z,100232.38
2023-01-07T22:01:17.460Z,100240.28
2023-01-07T22:03:49.953Z,100237.63
2023-01-07T22:06:32.756Z,100230.59
2023-01-07T22:09:04.851Z,100226.22
2023-01-07T22:11:35.710Z,100240.22
2023-01-07T22:14:02.914Z,100233.19
2023-01-07T22:16:32.055Z,100233.22
2023-01-07T22:18:59.892Z,100227.94
2023-01-07T22:21:27.131Z,100229.69
2023-01-07T22:23:54.225Z,100231.41
2023-01-07T22:26:21.813Z,100246.34
2023-01-07T22:28:56.210Z,100234.06
2023-01-07T22:31:41.814Z,100239.31
2023-01-07T22:34:09.840Z,100218.25
2023-01-07T22:37:18.810Z,100212.09
2023-01-07T22:39:57.088Z,100213.88
2023-01-07T22:42:39.706Z,100235.78
2023-01-07T22:45:17.738Z,100228.75
2023-01-07T22:47:52.537Z,100227.00
2023-01-07T22:50:19.855Z,100229.63
2023-01-07T22:52:47.417Z,100232.22
2023-01-07T22:55:14.595Z,100226.13
2023-01-07T22:57:42.048Z,100225.22
2023-01-07T23:00:35.866Z,100229.59
2023-01-07T23:03:02.999Z,100228.72
2023-01-07T23:05:30.070Z,100222.56
2023-01-07T23:08:00.352Z,100224.34
2023-01-07T23:10:27.514Z,100232.22
2023-01-07T23:12:54.573Z,100235.72
2023-01-07T23:15:21.747Z,100218.19
2023-01-07T23:17:48.740Z,100212.94
2023-01-07T23:20:16.103Z,100218.19
2023-01-07T23:22:43.151Z,100212.03
2023-01-07T23:25:10.225Z,100208.53
2023-01-07T23:27:39.284Z,100202.41
2023-01-07T23:30:07.506Z,100198.00
2023-01-07T23:32:34.537Z,100202.38
2023-01-07T23:35:01.569Z,100203.25
2023-01-07T23:37:35.232Z,100204.13
2023-01-07T23:40:02.256Z,100198.91
2023-01-07T23:42:29.362Z,100205.03
2023-01-07T23:44:57.089Z,100193.72
2023-01-07T23:47:24.547Z,100195.47
2023-01-07T23:49:51.930Z,100197.25
2023-01-07T23:52:19.257Z,100189.41
2023-01-07T23:54:46.429Z,100186.78
2023-01-07T23:57:13.439Z,100192.06
2023-01-07T23:59:40.498Z,100193.81
